sensor_id;sensor_type;location;lat;lon;timestamp;temperature;humidity
73360;DHT22;63092;43.582;19.528;2023-08-20T00:02:16;22.10;99.90
73360;DHT22;63092;43.582;19.528;2023-08-20T00:04:46;22.10;99.90
73360;DHT22;63092;43.582;19.528;2023-08-20T00:07:14;22.10;99.90
73360;DHT22;63092;43.582;19.528;2023-08-20T00:09:41;22.10;99.90
73360;DHT22;63092;43.582;19.528;2023-08-20T00:12:07;22.10;99.90
73360;DHT22;63092;43.582;19.528;2023-08-20T00:14:55;22.10;99.90
73360;DHT22;63092;43.582;19.528;2023-08-20T00:17:22;22.10;99.90
73360;DHT22;63092;43.582;19.528;2023-08-20T00:19:50;22.20;99.90
73360;DHT22;63092;43.582;19.528;2023-08-20T00:22:16;22.20;99.90
73360;DHT22;63092;43.582;19.528;2023-08-20T00:24:43;22.20;99.90
73360;DHT22;63092;43.582;19.528;2023-08-20T00:27:08;22.20;99.90
73360;DHT22;63092;43.582;19.528;2023-08-20T00:29:34;22.20;99.90
73360;DHT22;63092;43.582;19.528;2023-08-20T00:32:00;22.20;99.90
73360;DHT22;63092;43.582;19.528;2023-08-20T00:34:25;22.20;99.90
73360;DHT22;63092;43.582;19.528;2023-08-20T00:36:51;22.10;99.90
73360;DHT22;63092;43.582;19.528;2023-08-20T00:39:17;22.00;99.90
73360;DHT22;63092;43.582;19.528;2023-08-20T00:41:43;21.90;99.90
73360;DHT22;63092;43.582;19.528;2023-08-20T00:44:09;21.90;99.90
73360;DHT22;63092;43.582;19.528;2023-08-20T00:46:35;21.90;99.90
73360;DHT22;63092;43.582;19.528;2023-08-20T00:49:01;21.90;99.90
73360;DHT22;63092;43.582;19.528;2023-08-20T00:51:28;21.90;99.90
73360;DHT22;63092;43.582;19.528;2023-08-20T00:53:54;21.90;99.90
73360;DHT22;63092;43.582;19.528;2023-08-20T00:56:20;22.00;99.90
73360;DHT22;63092;43.582;19.528;2023-08-20T00:58:46;22.00;99.90
73360;DHT22;63092;43.582;19.528;2023-08-20T01:01:12;22.00;99.90
73360;DHT22;63092;43.582;19.528;2023-08-20T01:03:38;22.00;99.90
73360;DHT22;63092;43.582;19.528;2023-08-20T01:09:03;22.00;99.90
73360;DHT22;63092;43.582;19.528;2023-08-20T01:11:34;22.00;99.90
73360;DHT22;63092;43.582;19.528;2023-08-20T01:14:02;22.00;99.90
73360;DHT22;63092;43.582;19.528;2023-08-20T01:16:39;22.00;99.90
73360;DHT22;63092;43.582;19.528;2023-08-20T01:19:06;21.90;99.90
73360;DHT22;63092;43.582;19.528;2023-08-20T01:30:34;21.90;99.90
73360;DHT22;63092;43.582;19.528;2023-08-20T01:33:00;21.90;99.90
73360;DHT22;63092;43.582;19.528;2023-08-20T01:35:27;21.80;99.90
73360;DHT22;63092;43.582;19.528;2023-08-20T01:37:52;21.70;99.90
73360;DHT22;63092;43.582;19.528;2023-08-20T01:40:18;21.60;99.90
73360;DHT22;63092;43.582;19.528;2023-08-20T01:42:44;21.70;99.90
73360;DHT22;63092;43.582;19.528;2023-08-20T01:47:36;21.60;99.90
73360;DHT22;63092;43.582;19.528;2023-08-20T01:50:02;21.60;99.90
73360;DHT22;63092;43.582;19.528;2023-08-20T01:52:28;21.60;99.90
73360;DHT22;63092;43.582;19.528;2023-08-20T01:54:55;21.70;99.90
73360;DHT22;63092;43.582;19.528;2023-08-20T01:57:21;21.70;99.90
73360;DHT22;63092;43.582;19.528;2023-08-20T01:59:47;21.80;99.90
73360;DHT22;63092;43.582;19.528;2023-08-20T02:02:13;21.80;99.90
73360;DHT22;63092;43.582;19.528;2023-08-20T02:04:39;21.80;99.90
73360;DHT22;63092;43.582;19.528;2023-08-20T02:07:05;21.80;99.90
73360;DHT22;63092;43.582;19.528;2023-08-20T02:09:31;21.80;99.90
73360;DHT22;63092;43.582;19.528;2023-08-20T02:11:57;21.80;99.90
73360;DHT22;63092;43.582;19.528;2023-08-20T02:14:22;21.80;99.90
73360;DHT22;63092;43.582;19.528;2023-08-20T02:16:48;21.90;99.90
73360;DHT22;63092;43.582;19.528;2023-08-20T02:19:14;21.90;99.90
73360;DHT22;63092;43.582;19.528;2023-08-20T02:21:40;21.80;99.90
73360;DHT22;63092;43.582;19.528;2023-08-20T02:24:06;21.90;99.90
73360;DHT22;63092;43.582;19.528;2023-08-20T02:26:32;21.80;99.90
73360;DHT22;63092;43.582;19.528;2023-08-20T02:28:58;21.80;99.90
73360;DHT22;63092;43.582;19.528;2023-08-20T02:31:23;21.80;99.90
73360;DHT22;63092;43.582;19.528;2023-08-20T02:33:49;21.90;99.90
73360;DHT22;63092;43.582;19.528;2023-08-20T02:36:15;21.80;99.90
73360;DHT22;63092;43.582;19.528;2023-08-20T02:38:41;21.80;99.90
73360;DHT22;63092;43.582;19.528;2023-08-20T02:41:06;21.80;99.90
73360;DHT22;63092;43.582;19.528;2023-08-20T02:43:32;21.80;99.90
73360;DHT22;63092;43.582;19.528;2023-08-20T02:45:58;21.80;99.90
73360;DHT22;63092;43.582;19.528;2023-08-20T02:48:24;21.80;99.90
73360;DHT22;63092;43.582;19.528;2023-08-20T02:50:53;21.80;99.90
73360;DHT22;63092;43.582;19.528;2023-08-20T02:53:22;21.80;99.90
73360;DHT22;63092;43.582;19.528;2023-08-20T02:55:48;21.80;99.90
73360;DHT22;63092;43.582;19.528;2023-08-20T02:58:14;21.70;99.90
73360;DHT22;63092;43.582;19.528;2023-08-20T03:00:40;21.60;99.90
73360;DHT22;63092;43.582;19.528;2023-08-20T03:03:07;21.60;99.90
73360;DHT22;63092;43.582;19.528;2023-08-20T03:05:34;21.60;99.90
73360;DHT22;63092;43.582;19.528;2023-08-20T03:08:00;21.50;99.90
73360;DHT22;63092;43.582;19.528;2023-08-20T03:10:27;21.60;99.90
73360;DHT22;63092;43.582;19.528;2023-08-20T03:12:53;21.50;99.90
73360;DHT22;63092;43.582;19.528;2023-08-20T03:15:19;21.50;99.90
73360;DHT22;63092;43.582;19.528;2023-08-20T03:17:44;21.50;99.90
73360;DHT22;63092;43.582;19.528;2023-08-20T03:20:10;21.40;99.90
73360;DHT22;63092;43.582;19.528;2023-08-20T03:22:37;21.50;99.90
73360;DHT22;63092;43.582;19.528;2023-08-20T03:25:04;21.40;99.90
73360;DHT22;63092;43.582;19.528;2023-08-20T03:27:30;21.50;99.90
73360;DHT22;63092;43.582;19.528;2023-08-20T03:29:56;21.40;99.90
73360;DHT22;63092;43.582;19.528;2023-08-20T03:32:22;21.40;99.90
73360;DHT22;63092;43.582;19.528;2023-08-20T03:34:48;21.30;99.90
73360;DHT22;63092;43.582;19.528;2023-08-20T03:37:13;21.20;99.90
73360;DHT22;63092;43.582;19.528;2023-08-20T03:39:39;21.30;99.90
73360;DHT22;63092;43.582;19.528;2023-08-20T03:42:05;21.30;99.90
73360;DHT22;63092;43.582;19.528;2023-08-20T03:44:31;21.20;99.90
73360;DHT22;63092;43.582;19.528;2023-08-20T03:46:57;21.30;99.90
73360;DHT22;63092;43.582;19.528;2023-08-20T03:49:23;21.20;99.90
73360;DHT22;63092;43.582;19.528;2023-08-20T03:54:15;21.10;99.90
73360;DHT22;63092;43.582;19.528;2023-08-20T03:56:40;21.10;99.90
73360;DHT22;63092;43.582;19.528;2023-08-20T03:59:06;21.20;99.90
73360;DHT22;63092;43.582;19.528;2023-08-20T04:01:32;21.20;99.90
73360;DHT22;63092;43.582;19.528;2023-08-20T04:03:58;21.20;99.90
73360;DHT22;63092;43.582;19.528;2023-08-20T04:06:23;21.20;99.90
73360;DHT22;63092;43.582;19.528;2023-08-20T04:08:49;21.10;99.90
73360;DHT22;63092;43.582;19.528;2023-08-20T04:11:15;21.10;99.90
73360;DHT22;63092;43.582;19.528;2023-08-20T04:13:40;21.10;99.90
73360;DHT22;63092;43.582;19.528;2023-08-20T04:16:09;21.10;99.90
73360;DHT22;63092;43.582;19.528;2023-08-20T04:18:35;21.20;99.90
73360;DHT22;63092;43.582;19.528;2023-08-20T04:21:01;21.30;99.90
73360;DHT22;63092;43.582;19.528;2023-08-20T04:23:26;21.30;99.90
73360;DHT22;63092;43.582;19.528;2023-08-20T04:25:52;21.30;99.90
73360;DHT22;63092;43.582;19.528;2023-08-20T04:28:18;21.20;99.90
73360;DHT22;63092;43.582;19.528;2023-08-20T04:30:44;21.20;99.90
73360;DHT22;63092;43.582;19.528;2023-08-20T04:33:10;21.20;99.90
73360;DHT22;63092;43.582;19.528;2023-08-20T04:35:35;21.20;99.90
73360;DHT22;63092;43.582;19.528;2023-08-20T04:38:02;21.30;99.90
73360;DHT22;63092;43.582;19.528;2023-08-20T04:40:28;21.20;99.90
73360;DHT22;63092;43.582;19.528;2023-08-20T04:42:54;21.20;99.90
73360;DHT22;63092;43.582;19.528;2023-08-20T04:45:19;21.30;99.90
73360;DHT22;63092;43.582;19.528;2023-08-20T04:47:46;21.20;99.90
73360;DHT22;63092;43.582;19.528;2023-08-20T04:50:12;21.20;99.90
73360;DHT22;63092;43.582;19.528;2023-08-20T04:52:41;21.20;99.90
73360;DHT22;63092;43.582;19.528;2023-08-20T04:55:07;21.20;99.90
73360;DHT22;63092;43.582;19.528;2023-08-20T04:57:34;21.20;99.90
73360;DHT22;63092;43.582;19.528;2023-08-20T05:00:00;21.20;99.90
73360;DHT22;63092;43.582;19.528;2023-08-20T05:02:26;21.20;99.90
73360;DHT22;63092;43.582;19.528;2023-08-20T05:04:52;21.30;99.90
73360;DHT22;63092;43.582;19.528;2023-08-20T05:07:18;21.30;99.90
73360;DHT22;63092;43.582;19.528;2023-08-20T05:09:44;21.30;99.90
73360;DHT22;63092;43.582;19.528;2023-08-20T05:12:10;21.30;99.90
73360;DHT22;63092;43.582;19.528;2023-08-20T05:14:35;21.30;99.90
73360;DHT22;63092;43.582;19.528;2023-08-20T05:17:01;21.30;99.90
73360;DHT22;63092;43.582;19.528;2023-08-20T05:19:27;21.40;99.90
73360;DHT22;63092;43.582;19.528;2023-08-20T05:21:52;21.30;99.90
73360;DHT22;63092;43.582;19.528;2023-08-20T05:24:22;21.30;99.90
73360;DHT22;63092;43.582;19.528;2023-08-20T05:29:31;21.30;99.90
73360;DHT22;63092;43.582;19.528;2023-08-20T05:31:57;21.40;99.90
73360;DHT22;63092;43.582;19.528;2023-08-20T05:34:23;21.50;99.90
73360;DHT22;63092;43.582;19.528;2023-08-20T05:36:48;21.50;99.90
73360;DHT22;63092;43.582;19.528;2023-08-20T05:39:14;21.60;99.90
73360;DHT22;63092;43.582;19.528;2023-08-20T05:41:40;21.50;99.90
73360;DHT22;63092;43.582;19.528;2023-08-20T05:44:05;21.60;99.90
73360;DHT22;63092;43.582;19.528;2023-08-20T05:46:31;21.60;99.90
73360;DHT22;63092;43.582;19.528;2023-08-20T05:48:57;21.50;99.90
73360;DHT22;63092;43.582;19.528;2023-08-20T05:51:23;21.50;99.90
73360;DHT22;63092;43.582;19.528;2023-08-20T05:53:48;21.60;99.90
73360;DHT22;63092;43.582;19.528;2023-08-20T05:56:14;21.60;99.90
73360;DHT22;63092;43.582;19.528;2023-08-20T05:58:40;21.60;99.90
73360;DHT22;63092;43.582;19.528;2023-08-20T06:01:05;21.70;99.90
73360;DHT22;63092;43.582;19.528;2023-08-20T06:03:31;21.80;99.90
73360;DHT22;63092;43.582;19.528;2023-08-20T06:05:58;21.70;99.90
73360;DHT22;63092;43.582;19.528;2023-08-20T06:08:24;21.80;99.90
73360;DHT22;63092;43.582;19.528;2023-08-20T06:10:50;21.80;99.90
73360;DHT22;63092;43.582;19.528;2023-08-20T06:13:16;21.80;99.90
73360;DHT22;63092;43.582;19.528;2023-08-20T06:15:42;22.00;99.90
73360;DHT22;63092;43.582;19.528;2023-08-20T06:18:08;22.10;99.90
73360;DHT22;63092;43.582;19.528;2023-08-20T06:20:33;22.10;99.90
73360;DHT22;63092;43.582;19.528;2023-08-20T06:22:59;22.30;99.90
73360;DHT22;63092;43.582;19.528;2023-08-20T06:25:25;22.40;99.90
73360;DHT22;63092;43.582;19.528;2023-08-20T06:27:51;22.40;99.90
73360;DHT22;63092;43.582;19.528;2023-08-20T06:32:44;22.50;99.90
73360;DHT22;63092;43.582;19.528;2023-08-20T06:35:10;22.50;99.90
73360;DHT22;63092;43.582;19.528;2023-08-20T06:37:37;22.60;99.90
73360;DHT22;63092;43.582;19.528;2023-08-20T06:40:04;22.60;99.90
73360;DHT22;63092;43.582;19.528;2023-08-20T06:42:30;22.80;99.90
73360;DHT22;63092;43.582;19.528;2023-08-20T06:44:55;22.80;99.90
73360;DHT22;63092;43.582;19.528;2023-08-20T06:47:21;23.00;99.90
73360;DHT22;63092;43.582;19.528;2023-08-20T06:49:47;23.00;99.90
73360;DHT22;63092;43.582;19.528;2023-08-20T06:52:13;23.10;99.90
73360;DHT22;63092;43.582;19.528;2023-08-20T06:54:38;23.20;99.90
73360;DHT22;63092;43.582;19.528;2023-08-20T06:57:04;23.20;99.90
73360;DHT22;63092;43.582;19.528;2023-08-20T06:59:30;23.30;99.90
73360;DHT22;63092;43.582;19.528;2023-08-20T07:01:56;23.30;99.90
73360;DHT22;63092;43.582;19.528;2023-08-20T07:04:24;23.40;99.90
73360;DHT22;63092;43.582;19.528;2023-08-20T07:06:51;23.50;99.90
73360;DHT22;63092;43.582;19.528;2023-08-20T07:09:16;23.60;99.90
73360;DHT22;63092;43.582;19.528;2023-08-20T07:11:42;23.70;99.90
73360;DHT22;63092;43.582;19.528;2023-08-20T07:14:08;23.80;99.90
73360;DHT22;63092;43.582;19.528;2023-08-20T07:16:34;23.80;99.90
73360;DHT22;63092;43.582;19.528;2023-08-20T07:18:59;23.90;99.90
73360;DHT22;63092;43.582;19.528;2023-08-20T07:21:25;23.90;99.90
73360;DHT22;63092;43.582;19.528;2023-08-20T07:23:54;23.70;99.90
73360;DHT22;63092;43.582;19.528;2023-08-20T07:26:23;23.70;99.90
73360;DHT22;63092;43.582;19.528;2023-08-20T07:28:50;23.90;99.90
73360;DHT22;63092;43.582;19.528;2023-08-20T07:33:49;23.70;99.90
73360;DHT22;63092;43.582;19.528;2023-08-20T07:36:15;23.70;99.90
73360;DHT22;63092;43.582;19.528;2023-08-20T07:38:42;23.70;99.90
73360;DHT22;63092;43.582;19.528;2023-08-20T07:41:11;23.50;99.90
73360;DHT22;63092;43.582;19.528;2023-08-20T07:43:38;23.50;99.90
73360;DHT22;63092;43.582;19.528;2023-08-20T07:46:04;23.60;99.90
73360;DHT22;63092;43.582;19.528;2023-08-20T07:48:30;23.70;99.90
73360;DHT22;63092;43.582;19.528;2023-08-20T07:50:56;23.80;99.90
73360;DHT22;63092;43.582;19.528;2023-08-20T07:53:23;23.70;99.90
73360;DHT22;63092;43.582;19.528;2023-08-20T07:55:48;23.80;99.90
73360;DHT22;63092;43.582;19.528;2023-08-20T07:58:14;23.80;99.90
73360;DHT22;63092;43.582;19.528;2023-08-20T08:00:40;23.90;99.90
73360;DHT22;63092;43.582;19.528;2023-08-20T08:03:06;23.80;99.90
73360;DHT22;63092;43.582;19.528;2023-08-20T08:05:32;23.70;99.90
73360;DHT22;63092;43.582;19.528;2023-08-20T08:07:57;23.70;99.90
73360;DHT22;63092;43.582;19.528;2023-08-20T08:10:23;23.80;99.90
73360;DHT22;63092;43.582;19.528;2023-08-20T08:12:49;24.00;99.90
73360;DHT22;63092;43.582;19.528;2023-08-20T08:17:41;24.30;99.90
73360;DHT22;63092;43.582;19.528;2023-08-20T08:22:33;24.50;99.90
73360;DHT22;63092;43.582;19.528;2023-08-20T08:24:58;24.60;99.90
73360;DHT22;63092;43.582;19.528;2023-08-20T08:27:24;24.70;99.90
73360;DHT22;63092;43.582;19.528;2023-08-20T08:29:51;24.80;99.90
73360;DHT22;63092;43.582;19.528;2023-08-20T08:32:17;24.80;99.90
73360;DHT22;63092;43.582;19.528;2023-08-20T08:34:43;24.80;99.90
73360;DHT22;63092;43.582;19.528;2023-08-20T08:37:09;24.90;99.90
73360;DHT22;63092;43.582;19.528;2023-08-20T08:39:35;25.00;99.90
73360;DHT22;63092;43.582;19.528;2023-08-20T08:42:04;25.20;99.90
73360;DHT22;63092;43.582;19.528;2023-08-20T08:44:36;25.20;99.90
73360;DHT22;63092;43.582;19.528;2023-08-20T08:47:05;25.30;99.90
73360;DHT22;63092;43.582;19.528;2023-08-20T08:49:33;25.40;99.90
73360;DHT22;63092;43.582;19.528;2023-08-20T08:52:00;25.50;99.90
73360;DHT22;63092;43.582;19.528;2023-08-20T08:56:53;25.60;99.90
73360;DHT22;63092;43.582;19.528;2023-08-20T08:59:19;25.60;99.90
73360;DHT22;63092;43.582;19.528;2023-08-20T09:01:46;25.70;99.90
73360;DHT22;63092;43.582;19.528;2023-08-20T09:04:12;25.80;99.90
73360;DHT22;63092;43.582;19.528;2023-08-20T09:06:48;25.90;99.90
73360;DHT22;63092;43.582;19.528;2023-08-20T09:09:16;25.90;99.90
73360;DHT22;63092;43.582;19.528;2023-08-20T09:11:42;26.00;99.90
73360;DHT22;63092;43.582;19.528;2023-08-20T09:14:07;26.00;99.90
73360;DHT22;63092;43.582;19.528;2023-08-20T09:16:33;26.10;99.90
73360;DHT22;63092;43.582;19.528;2023-08-20T09:19:00;25.80;99.90
73360;DHT22;63092;43.582;19.528;2023-08-20T09:21:29;25.80;99.90
73360;DHT22;63092;43.582;19.528;2023-08-20T09:23:58;25.80;99.90
73360;DHT22;63092;43.582;19.528;2023-08-20T09:26:26;25.80;99.90
73360;DHT22;63092;43.582;19.528;2023-08-20T09:28:55;25.80;99.90
73360;DHT22;63092;43.582;19.528;2023-08-20T09:31:22;25.80;99.90
73360;DHT22;63092;43.582;19.528;2023-08-20T09:34:02;25.70;99.90
73360;DHT22;63092;43.582;19.528;2023-08-20T09:36:34;25.80;99.90
73360;DHT22;63092;43.582;19.528;2023-08-20T09:39:03;26.00;99.90
73360;DHT22;63092;43.582;19.528;2023-08-20T09:41:30;26.10;99.90
73360;DHT22;63092;43.582;19.528;2023-08-20T09:43:59;26.00;99.90
73360;DHT22;63092;43.582;19.528;2023-08-20T09:46:27;25.90;99.90
73360;DHT22;63092;43.582;19.528;2023-08-20T09:48:56;26.10;99.90
73360;DHT22;63092;43.582;19.528;2023-08-20T09:51:27;26.10;99.90
73360;DHT22;63092;43.582;19.528;2023-08-20T09:54:00;26.20;99.90
73360;DHT22;63092;43.582;19.528;2023-08-20T09:56:29;26.30;99.90
73360;DHT22;63092;43.582;19.528;2023-08-20T09:59:00;26.50;99.90
73360;DHT22;63092;43.582;19.528;2023-08-20T10:01:27;26.50;99.90
73360;DHT22;63092;43.582;19.528;2023-08-20T10:03:54;26.60;99.90
73360;DHT22;63092;43.582;19.528;2023-08-20T10:06:20;26.80;99.90
73360;DHT22;63092;43.582;19.528;2023-08-20T10:08:46;26.90;99.90
73360;DHT22;63092;43.582;19.528;2023-08-20T10:11:12;27.00;99.60
73360;DHT22;63092;43.582;19.528;2023-08-20T10:13:39;27.20;99.50
73360;DHT22;63092;43.582;19.528;2023-08-20T10:16:05;27.20;99.50
73360;DHT22;63092;43.582;19.528;2023-08-20T10:18:31;27.40;99.50
73360;DHT22;63092;43.582;19.528;2023-08-20T10:21:01;27.50;99.20
73360;DHT22;63092;43.582;19.528;2023-08-20T10:23:27;27.50;98.90
73360;DHT22;63092;43.582;19.528;2023-08-20T10:25:54;27.40;98.80
73360;DHT22;63092;43.582;19.528;2023-08-20T10:28:25;27.40;98.10
73360;DHT22;63092;43.582;19.528;2023-08-20T10:31:09;27.50;98.40
73360;DHT22;63092;43.582;19.528;2023-08-20T10:33:47;27.70;98.60
73360;DHT22;63092;43.582;19.528;2023-08-20T10:36:19;27.80;97.90
73360;DHT22;63092;43.582;19.528;2023-08-20T10:38:49;27.90;97.90
73360;DHT22;63092;43.582;19.528;2023-08-20T10:41:15;28.00;97.70
73360;DHT22;63092;43.582;19.528;2023-08-20T10:43:47;28.00;97.60
73360;DHT22;63092;43.582;19.528;2023-08-20T10:46:24;28.10;97.70
73360;DHT22;63092;43.582;19.528;2023-08-20T10:51:33;28.30;96.90
73360;DHT22;63092;43.582;19.528;2023-08-20T10:56:45;28.60;96.50
73360;DHT22;63092;43.582;19.528;2023-08-20T10:59:16;28.70;96.60
73360;DHT22;63092;43.582;19.528;2023-08-20T11:01:49;28.80;96.40
73360;DHT22;63092;43.582;19.528;2023-08-20T11:04:16;29.00;95.70
73360;DHT22;63092;43.582;19.528;2023-08-20T11:06:45;29.10;94.80
73360;DHT22;63092;43.582;19.528;2023-08-20T11:09:11;29.20;94.70
73360;DHT22;63092;43.582;19.528;2023-08-20T11:11:41;29.30;94.60
73360;DHT22;63092;43.582;19.528;2023-08-20T11:14:12;29.40;94.70
73360;DHT22;63092;43.582;19.528;2023-08-20T11:16:42;29.40;94.80
73360;DHT22;63092;43.582;19.528;2023-08-20T11:19:11;29.50;94.30
73360;DHT22;63092;43.582;19.528;2023-08-20T11:21:38;29.70;94.00
73360;DHT22;63092;43.582;19.528;2023-08-20T11:24:08;29.60;92.90
73360;DHT22;63092;43.582;19.528;2023-08-20T11:26:36;29.70;92.10
73360;DHT22;63092;43.582;19.528;2023-08-20T11:29:06;29.80;92.10
73360;DHT22;63092;43.582;19.528;2023-08-20T11:31:32;29.80;91.60
73360;DHT22;63092;43.582;19.528;2023-08-20T11:33:57;29.80;91.30
73360;DHT22;63092;43.582;19.528;2023-08-20T11:36:23;30.00;91.30
73360;DHT22;63092;43.582;19.528;2023-08-20T11:38:53;30.00;91.10
73360;DHT22;63092;43.582;19.528;2023-08-20T11:41:23;30.20;90.80
73360;DHT22;63092;43.582;19.528;2023-08-20T11:43:50;30.30;90.20
73360;DHT22;63092;43.582;19.528;2023-08-20T11:46:19;30.30;89.70
73360;DHT22;63092;43.582;19.528;2023-08-20T11:49:08;30.30;88.10
73360;DHT22;63092;43.582;19.528;2023-08-20T11:51:42;30.40;88.80
73360;DHT22;63092;43.582;19.528;2023-08-20T11:54:12;30.40;88.90
73360;DHT22;63092;43.582;19.528;2023-08-20T11:59:11;30.40;86.70
73360;DHT22;63092;43.582;19.528;2023-08-20T12:01:37;30.50;87.10
73360;DHT22;63092;43.582;19.528;2023-08-20T12:04:05;30.50;85.50
73360;DHT22;63092;43.582;19.528;2023-08-20T12:06:31;30.60;84.10
73360;DHT22;63092;43.582;19.528;2023-08-20T12:08:57;30.70;85.00
73360;DHT22;63092;43.582;19.528;2023-08-20T12:11:27;30.80;83.00
73360;DHT22;63092;43.582;19.528;2023-08-20T12:13:54;30.90;82.40
73360;DHT22;63092;43.582;19.528;2023-08-20T12:16:22;31.10;82.10
73360;DHT22;63092;43.582;19.528;2023-08-20T12:18:48;31.20;81.40
73360;DHT22;63092;43.582;19.528;2023-08-20T12:21:14;31.30;78.70
73360;DHT22;63092;43.582;19.528;2023-08-20T12:23:39;31.50;78.80
73360;DHT22;63092;43.582;19.528;2023-08-20T12:26:05;31.50;79.00
73360;DHT22;63092;43.582;19.528;2023-08-20T12:28:31;31.60;77.40
73360;DHT22;63092;43.582;19.528;2023-08-20T12:30:56;31.50;74.30
73360;DHT22;63092;43.582;19.528;2023-08-20T12:33:22;31.20;73.60
73360;DHT22;63092;43.582;19.528;2023-08-20T12:35:49;31.20;75.20
73360;DHT22;63092;43.582;19.528;2023-08-20T12:38:15;31.10;75.00
73360;DHT22;63092;43.582;19.528;2023-08-20T12:40:41;31.20;73.50
73360;DHT22;63092;43.582;19.528;2023-08-20T12:43:07;31.20;74.00
73360;DHT22;63092;43.582;19.528;2023-08-20T12:45:32;31.10;72.70
73360;DHT22;63092;43.582;19.528;2023-08-20T12:47:58;31.10;73.60
73360;DHT22;63092;43.582;19.528;2023-08-20T12:50:24;31.00;73.10
73360;DHT22;63092;43.582;19.528;2023-08-20T12:52:51;31.00;73.60
73360;DHT22;63092;43.582;19.528;2023-08-20T12:55:17;31.00;72.40
73360;DHT22;63092;43.582;19.528;2023-08-20T12:58:12;31.00;71.10
73360;DHT22;63092;43.582;19.528;2023-08-20T13:00:38;30.90;70.90
73360;DHT22;63092;43.582;19.528;2023-08-20T13:03:04;30.90;71.10
73360;DHT22;63092;43.582;19.528;2023-08-20T13:05:30;31.00;71.50
73360;DHT22;63092;43.582;19.528;2023-08-20T13:07:57;31.10;72.70
73360;DHT22;63092;43.582;19.528;2023-08-20T13:10:22;31.10;72.10
73360;DHT22;63092;43.582;19.528;2023-08-20T13:12:52;31.00;71.30
73360;DHT22;63092;43.582;19.528;2023-08-20T13:15:20;31.10;73.20
73360;DHT22;63092;43.582;19.528;2023-08-20T13:17:48;31.20;72.60
73360;DHT22;63092;43.582;19.528;2023-08-20T13:20:14;31.30;71.90
73360;DHT22;63092;43.582;19.528;2023-08-20T13:22:41;31.20;73.20
73360;DHT22;63092;43.582;19.528;2023-08-20T13:25:07;31.30;73.40
73360;DHT22;63092;43.582;19.528;2023-08-20T13:27:33;31.30;72.70
73360;DHT22;63092;43.582;19.528;2023-08-20T13:29:59;31.40;73.50
73360;DHT22;63092;43.582;19.528;2023-08-20T13:32:24;31.40;72.90
73360;DHT22;63092;43.582;19.528;2023-08-20T13:34:51;31.40;72.80
73360;DHT22;63092;43.582;19.528;2023-08-20T13:37:17;31.40;72.80
73360;DHT22;63092;43.582;19.528;2023-08-20T13:39:43;31.50;73.20
73360;DHT22;63092;43.582;19.528;2023-08-20T13:42:09;31.40;72.40
73360;DHT22;63092;43.582;19.528;2023-08-20T13:44:34;31.30;72.40
73360;DHT22;63092;43.582;19.528;2023-08-20T13:47:00;31.20;72.40
73360;DHT22;63092;43.582;19.528;2023-08-20T13:49:26;31.30;72.50
73360;DHT22;63092;43.582;19.528;2023-08-20T13:51:52;31.30;73.40
73360;DHT22;63092;43.582;19.528;2023-08-20T13:54:17;31.30;73.60
73360;DHT22;63092;43.582;19.528;2023-08-20T13:56:43;31.30;73.40
73360;DHT22;63092;43.582;19.528;2023-08-20T13:59:09;31.40;74.30
73360;DHT22;63092;43.582;19.528;2023-08-20T14:01:35;31.30;73.30
73360;DHT22;63092;43.582;19.528;2023-08-20T14:04:01;31.40;73.40
73360;DHT22;63092;43.582;19.528;2023-08-20T14:06:28;31.40;73.40
73360;DHT22;63092;43.582;19.528;2023-08-20T14:08:55;31.40;73.50
73360;DHT22;63092;43.582;19.528;2023-08-20T14:11:20;31.40;73.70
73360;DHT22;63092;43.582;19.528;2023-08-20T14:13:47;31.40;73.90
73360;DHT22;63092;43.582;19.528;2023-08-20T14:16:13;31.50;73.80
73360;DHT22;63092;43.582;19.528;2023-08-20T14:18:38;31.60;74.50
73360;DHT22;63092;43.582;19.528;2023-08-20T14:21:04;31.60;74.40
73360;DHT22;63092;43.582;19.528;2023-08-20T14:23:30;31.70;75.60
73360;DHT22;63092;43.582;19.528;2023-08-20T14:25:56;31.60;74.50
73360;DHT22;63092;43.582;19.528;2023-08-20T14:28:21;31.50;74.90
73360;DHT22;63092;43.582;19.528;2023-08-20T14:30:48;31.50;74.30
73360;DHT22;63092;43.582;19.528;2023-08-20T14:33:15;31.40;74.60
73360;DHT22;63092;43.582;19.528;2023-08-20T14:35:41;31.40;73.60
73360;DHT22;63092;43.582;19.528;2023-08-20T14:38:07;31.40;73.10
73360;DHT22;63092;43.582;19.528;2023-08-20T14:40:39;31.30;73.10
73360;DHT22;63092;43.582;19.528;2023-08-20T14:43:06;31.40;74.50
73360;DHT22;63092;43.582;19.528;2023-08-20T14:45:32;31.40;75.50
73360;DHT22;63092;43.582;19.528;2023-08-20T14:47:58;31.40;73.50
73360;DHT22;63092;43.582;19.528;2023-08-20T14:50:24;31.40;74.80
73360;DHT22;63092;43.582;19.528;2023-08-20T14:52:50;31.50;74.00
73360;DHT22;63092;43.582;19.528;2023-08-20T14:55:18;31.50;73.80
73360;DHT22;63092;43.582;19.528;2023-08-20T14:57:44;31.50;74.90
73360;DHT22;63092;43.582;19.528;2023-08-20T15:00:11;31.50;74.60
73360;DHT22;63092;43.582;19.528;2023-08-20T15:02:42;31.50;74.60
73360;DHT22;63092;43.582;19.528;2023-08-20T15:05:10;31.50;74.90
73360;DHT22;63092;43.582;19.528;2023-08-20T15:07:36;31.50;74.30
73360;DHT22;63092;43.582;19.528;2023-08-20T15:10:05;31.50;73.50
73360;DHT22;63092;43.582;19.528;2023-08-20T15:12:35;31.50;73.70
73360;DHT22;63092;43.582;19.528;2023-08-20T15:15:03;31.40;74.50
73360;DHT22;63092;43.582;19.528;2023-08-20T15:17:29;31.40;75.40
73360;DHT22;63092;43.582;19.528;2023-08-20T15:19:55;31.40;74.50
73360;DHT22;63092;43.582;19.528;2023-08-20T15:22:21;31.40;74.30
73360;DHT22;63092;43.582;19.528;2023-08-20T15:24:47;31.40;74.30
73360;DHT22;63092;43.582;19.528;2023-08-20T15:27:13;31.40;74.00
73360;DHT22;63092;43.582;19.528;2023-08-20T15:29:39;31.40;74.20
73360;DHT22;63092;43.582;19.528;2023-08-20T15:32:05;31.30;75.60
73360;DHT22;63092;43.582;19.528;2023-08-20T15:34:30;31.30;75.70
73360;DHT22;63092;43.582;19.528;2023-08-20T15:36:56;31.30;76.10
73360;DHT22;63092;43.582;19.528;2023-08-20T15:39:22;31.30;76.60
73360;DHT22;63092;43.582;19.528;2023-08-20T15:41:49;31.10;76.00
73360;DHT22;63092;43.582;19.528;2023-08-20T15:44:14;31.20;77.20
73360;DHT22;63092;43.582;19.528;2023-08-20T15:46:40;31.10;76.80
73360;DHT22;63092;43.582;19.528;2023-08-20T15:49:06;31.00;76.90
73360;DHT22;63092;43.582;19.528;2023-08-20T15:53:59;30.80;76.50
73360;DHT22;63092;43.582;19.528;2023-08-20T15:56:25;30.80;77.70